Time;durP1;ratioP1;P1;durP2;ratioP2;P2;SDS_P1;SDS_P2;PMS_P1;PMS_P2;Temp;Humidity;BMP_temperature;BMP_pressure;BME280_temperature;BME280_humidity;BME280_pressure;Samples;Min_cycle;Max_cycle;Signal;HPM_P1;HPM_P2
2022/11/28 00:00:54;;;;;;;33.10;20.77;;;0.90;99.90;;;;;;5073996;28;20169;-79
2022/11/28 00:03:21;;;;;;;24.73;16.50;;;1.00;99.90;;;;;;5073795;28;20017;-79
2022/11/28 00:05:47;;;;;;;29.83;19.17;;;0.90;99.90;;;;;;5074072;28;20016;-79
2022/11/28 00:08:12;;;;;;;24.97;16.33;;;0.90;99.90;;;;;;5073730;28;20059;-79
2022/11/28 00:10:39;;;;;;;23.10;16.37;;;0.90;99.90;;;;;;5073902;28;20505;-79
2022/11/28 00:13:05;;;;;;;23.30;15.90;;;0.90;99.90;;;;;;5073953;28;20025;-79
2022/11/28 00:15:30;;;;;;;22.80;16.20;;;0.90;99.90;;;;;;5073227;28;20032;-79
2022/11/28 00:17:56;;;;;;;22.87;15.23;;;0.90;99.90;;;;;;5073505;28;20063;-79
2022/11/28 00:20:21;;;;;;;25.67;17.43;;;0.80;99.90;;;;;;5073623;28;20040;-79
2022/11/28 00:22:47;;;;;;;24.67;16.70;;;0.90;99.90;;;;;;5055526;28;20060;-79
2022/11/28 00:25:12;;;;;;;24.53;16.50;;;0.80;99.90;;;;;;5073656;28;20035;-79
2022/11/28 00:27:38;;;;;;;22.60;16.80;;;0.80;99.90;;;;;;5073526;28;20462;-79
2022/11/28 00:30:04;;;;;;;23.63;16.50;;;0.80;99.90;;;;;;5073645;28;20031;-79
2022/11/28 00:32:30;;;;;;;21.37;15.20;;;0.80;99.90;;;;;;5073342;28;20032;-79
2022/11/28 00:34:55;;;;;;;22.77;16.87;;;0.80;99.90;;;;;;5073655;28;20085;-78
2022/11/28 00:37:21;;;;;;;24.83;17.93;;;0.80;99.90;;;;;;5073552;28;20036;-78
2022/11/28 00:39:46;;;;;;;26.37;17.00;;;0.80;99.90;;;;;;5074017;28;20040;-78
2022/11/28 00:42:12;;;;;;;23.40;16.87;;;0.80;99.90;;;;;;5074535;28;20083;-79
2022/11/28 00:44:38;;;;;;;20.33;15.03;;;0.80;99.90;;;;;;5073751;28;20020;-78
2022/11/28 00:47:03;;;;;;;22.47;16.13;;;0.80;99.90;;;;;;5073338;28;20147;-78
2022/11/28 00:49:29;;;;;;;24.33;16.97;;;0.80;99.90;;;;;;5073037;28;20086;-78
2022/11/28 00:51:54;;;;;;;23.00;16.23;;;0.70;99.90;;;;;;5073309;28;20032;-78
2022/11/28 00:54:20;;;;;;;28.53;18.17;;;0.70;99.90;;;;;;5072796;28;20033;-78
2022/11/28 00:56:45;;;;;;;27.43;18.67;;;0.70;99.90;;;;;;5072971;28;20107;-78
2022/11/28 00:59:11;;;;;;;38.77;25.40;;;0.70;99.90;;;;;;5072459;28;20167;-78
2022/11/28 01:01:40;;;;;;;37.23;22.60;;;0.70;99.90;;;;;;5072410;28;20377;-78
2022/11/28 01:04:08;;;;;;;31.47;19.80;;;0.70;99.90;;;;;;5072230;28;20066;-78
2022/11/28 01:06:40;;;;;;;31.10;20.20;;;0.70;99.90;;;;;;5072420;28;20052;-78
2022/11/28 01:09:15;;;;;;;32.43;21.43;;;0.70;99.90;;;;;;5072540;28;20020;-78
2022/11/28 01:11:41;;;;;;;;;;;0.70;99.90;;;;;;5072805;28;20029;-78
2022/11/28 01:14:07;;;;;;;30.83;19.50;;;0.60;99.90;;;;;;5072407;28;19904;-78
2022/11/28 01:16:33;;;;;;;28.53;19.07;;;0.60;99.90;;;;;;5072511;28;20377;-78
2022/11/28 01:18:58;;;;;;;30.33;19.87;;;0.60;99.90;;;;;;5072416;28;20029;-78
2022/11/28 01:21:25;;;;;;;31.07;19.97;;;0.60;99.90;;;;;;5072546;28;20724;-78
2022/11/28 01:23:50;;;;;;;30.97;20.33;;;0.70;99.90;;;;;;5072384;28;20028;-78
2022/11/28 01:26:22;;;;;;;30.80;20.37;;;0.70;99.90;;;;;;5072302;28;20377;-78
2022/11/28 01:28:48;;;;;;;29.53;20.13;;;0.70;99.90;;;;;;5071438;28;20078;-78
2022/11/28 01:31:16;;;;;;;28.00;19.40;;;0.70;99.90;;;;;;5072001;28;20028;-78
2022/11/28 01:33:42;;;;;;;30.03;19.73;;;0.70;99.90;;;;;;5071955;28;20108;-78
2022/11/28 01:36:09;;;;;;;28.03;19.37;;;0.70;99.90;;;;;;5071990;28;20544;-77
2022/11/28 01:38:34;;;;;;;32.93;22.03;;;0.70;99.90;;;;;;5072095;28;20052;-78
2022/11/28 01:41:00;;;;;;;30.47;19.57;;;0.70;99.90;;;;;;5072027;28;20060;-78
2022/11/28 01:43:26;;;;;;;30.17;20.30;;;0.70;99.90;;;;;;5072100;28;20052;-78
2022/11/28 01:45:52;;;;;;;29.77;19.13;;;0.60;99.90;;;;;;5072027;28;20421;-78
2022/11/28 01:48:25;;;;;;;27.90;19.00;;;0.60;99.90;;;;;;5071711;28;20241;-78
2022/11/28 01:50:59;;;;;;;29.27;18.67;;;0.70;99.90;;;;;;5071822;28;20108;-78
2022/11/28 01:53:29;;;;;;;27.50;17.13;;;0.60;99.90;;;;;;5071648;28;20116;-78
2022/11/28 01:56:07;;;;;;;27.13;18.67;;;0.60;99.90;;;;;;5080019;28;20028;-78
2022/11/28 01:58:37;;;;;;;24.70;16.27;;;0.60;99.90;;;;;;5091699;28;20059;-78
2022/11/28 02:01:03;;;;;;;35.13;21.70;;;0.60;99.90;;;;;;5091701;28;20027;-78
2022/11/28 02:03:36;;;;;;;42.27;24.60;;;0.60;99.90;;;;;;5091635;28;20028;-78
2022/11/28 02:06:02;;;;;;;48.07;28.27;;;0.60;99.90;;;;;;5092053;28;20028;-78
2022/11/28 02:08:32;;;;;;;30.40;19.57;;;0.60;99.90;;;;;;5091553;28;20358;-78
2022/11/28 02:11:10;;;;;;;40.83;25.30;;;0.60;99.90;;;;;;5091533;28;20472;-78
2022/11/28 02:14:28;;;;;;;31.73;20.80;;;0.60;99.90;;;;;;5091323;28;20028;-78
2022/11/28 02:17:14;;;;;;;28.50;18.80;;;0.70;99.90;;;;;;5058090;28;20040;-78
2022/11/28 02:19:56;;;;;;;29.27;17.47;;;0.70;99.90;;;;;;5091964;28;20035;-78
2022/11/28 02:22:36;;;;;;;25.57;16.83;;;0.70;99.90;;;;;;5091195;28;20026;-78
2022/11/28 02:25:47;;;;;;;25.33;17.57;;;0.70;99.90;;;;;;5091485;28;20043;-78
2022/11/28 02:28:35;;;;;;;26.07;17.50;;;0.80;99.90;;;;;;5091174;28;20028;-78
2022/11/28 02:31:32;;;;;;;24.17;16.17;;;0.80;99.90;;;;;;5091443;28;20081;-78
2022/11/28 02:34:04;;;;;;;23.47;16.67;;;0.80;99.90;;;;;;5019721;28;20081;-79
2022/11/28 02:36:46;;;;;;;22.40;16.47;;;0.80;99.90;;;;;;5091532;28;20024;-78
2022/11/28 02:39:30;;;;;;;25.83;17.47;;;0.80;99.90;;;;;;5090373;28;20437;-78
2022/11/28 02:42:07;;;;;;;27.23;17.57;;;0.80;99.90;;;;;;5091138;28;20032;-78
2022/11/28 02:44:41;;;;;;;26.77;17.80;;;0.80;99.90;;;;;;5091493;28;20432;-78
2022/11/28 02:47:17;;;;;;;18.73;13.63;;;0.90;99.90;;;;;;5091161;28;20016;-78
2022/11/28 02:49:47;;;;;;;28.87;18.47;;;0.90;99.90;;;;;;5091363;28;20118;-78
2022/11/28 02:52:21;;;;;;;27.53;17.67;;;0.80;99.90;;;;;;5091033;28;20052;-78
2022/11/28 02:54:49;;;;;;;27.93;18.83;;;0.90;99.90;;;;;;5090881;28;20036;-78
2022/11/28 02:57:14;;;;;;;28.23;18.80;;;0.90;99.90;;;;;;5091167;28;20039;-78
2022/11/28 02:59:40;;;;;;;25.33;17.77;;;0.90;99.90;;;;;;5090999;28;20528;-78
2022/11/28 03:02:14;;;;;;;26.93;17.67;;;0.80;99.90;;;;;;5091027;28;20024;-78
2022/11/28 03:04:47;;;;;;;28.30;18.57;;;0.80;99.90;;;;;;5091370;28;20027;-78
2022/11/28 03:07:19;;;;;;;27.13;17.03;;;0.80;99.90;;;;;;5090771;28;20024;-78
2022/11/28 03:09:50;;;;;;;26.43;18.17;;;0.80;99.90;;;;;;5090996;28;20028;-78
2022/11/28 03:12:51;;;;;;;25.23;17.67;;;0.80;99.90;;;;;;5086518;28;20030;-78
2022/11/28 03:15:21;;;;;;;26.90;17.30;;;0.80;99.90;;;;;;5073340;28;20039;-79
2022/11/28 03:18:29;;;;;;;26.47;18.20;;;0.80;99.90;;;;;;5084464;28;20020;-79
2022/11/28 03:21:00;;;;;;;26.73;18.27;;;0.80;99.90;;;;;;5082378;28;20427;-78
2022/11/28 03:23:36;;;;;;;28.93;18.77;;;0.80;99.90;;;;;;5071834;28;20032;-79
2022/11/28 03:26:33;;;;;;;28.50;17.47;;;0.80;99.90;;;;;;5070046;28;20027;-78
2022/11/28 03:29:12;;;;;;;26.90;18.03;;;0.80;99.90;;;;;;5089579;28;20080;-78
2022/11/28 03:31:46;;;;;;;30.43;19.40;;;0.80;99.90;;;;;;5090957;28;20032;-79
2022/11/28 03:34:17;;;;;;;28.20;19.00;;;0.80;99.90;;;;;;5053857;28;20024;-78
2022/11/28 03:36:50;;;;;;;28.23;18.17;;;0.80;99.90;;;;;;5080612;28;20052;-79
2022/11/28 03:39:23;;;;;;;27.93;18.23;;;0.80;99.90;;;;;;5090910;28;20202;-79
2022/11/28 03:42:08;;;;;;;27.67;18.13;;;0.80;99.90;;;;;;5085437;28;20024;-79
2022/11/28 03:45:11;;;;;;;29.80;18.98;;;0.80;99.90;;;;;;5072888;28;20029;-79
2022/11/28 03:47:44;;;;;;;28.37;17.80;;;0.80;99.90;;;;;;5080899;28;21396;-79
2022/11/28 03:50:18;;;;;;;28.10;18.47;;;0.80;99.90;;;;;;5090657;28;20024;-79
2022/11/28 03:52:54;;;;;;;29.02;19.83;;;0.80;99.90;;;;;;5094327;28;20028;-80
2022/11/28 03:55:26;;;;;;;31.37;19.90;;;0.80;99.90;;;;;;5094262;28;20028;-79
2022/11/28 03:58:09;;;;;;;31.57;20.90;;;0.80;99.90;;;;;;5094443;28;20024;-79
2022/11/28 04:00:42;;;;;;;31.13;19.83;;;0.80;99.90;;;;;;5094230;28;20056;-79
2022/11/28 04:03:23;;;;;;;29.60;18.27;;;0.80;99.90;;;;;;5093962;28;20020;-79
2022/11/28 04:06:15;;;;;;;26.67;17.90;;;0.80;99.90;;;;;;5094084;28;20040;-79
2022/11/28 04:08:48;;;;;;;27.10;17.13;;;0.80;99.90;;;;;;5093953;28;20488;-79
2022/11/28 04:11:22;;;;;;;29.00;19.13;;;0.80;99.90;;;;;;5092790;28;20110;-79
2022/11/28 04:13:59;;;;;;;32.50;21.00;;;0.80;99.90;;;;;;5093941;28;20380;-78
2022/11/28 04:16:50;;;;;;;32.10;20.77;;;0.90;99.90;;;;;;5094074;28;20028;-79
2022/11/28 04:19:23;;;;;;;30.67;18.63;;;0.80;99.90;;;;;;5093726;28;20028;-79
2022/11/28 04:22:00;;;;;;;28.97;19.23;;;0.90;99.90;;;;;;5093573;28;20031;-79
2022/11/28 04:24:40;;;;;;;29.00;18.97;;;0.90;99.90;;;;;;5093466;28;20039;-79
2022/11/28 04:27:13;;;;;;;30.10;19.77;;;0.90;99.90;;;;;;5093325;28;20031;-79
2022/11/28 04:29:45;;;;;;;33.60;20.77;;;0.90;99.90;;;;;;5093489;28;20499;-79
2022/11/28 04:32:12;;;;;;;28.83;19.00;;;0.90;99.90;;;;;;5093425;28;20499;-79
2022/11/28 04:34:41;;;;;;;33.80;19.43;;;1.00;99.90;;;;;;5093707;28;20111;-78
2022/11/28 04:37:09;;;;;;;28.93;18.53;;;1.00;99.90;;;;;;5093103;28;20032;-79
2022/11/28 04:39:36;;;;;;;27.00;18.83;;;1.00;99.90;;;;;;5093599;28;20536;-79
2022/11/28 04:42:14;;;;;;;29.17;18.13;;;1.00;99.90;;;;;;5093501;28;20107;-79
2022/11/28 04:44:56;;;;;;;26.70;18.33;;;1.00;99.90;;;;;;5093190;28;20103;-79
2022/11/28 04:47:22;;;;;;;30.37;19.47;;;1.00;99.90;;;;;;5093233;28;20027;-79
2022/11/28 04:49:48;;;;;;;27.93;18.07;;;1.10;99.90;;;;;;5093112;28;20032;-79
2022/11/28 04:52:14;;;;;;;28.20;18.47;;;1.00;99.90;;;;;;5092985;28;20028;-79
2022/11/28 04:54:45;;;;;;;32.60;18.23;;;1.10;99.90;;;;;;5093082;28;20055;-79
2022/11/28 04:57:20;;;;;;;28.40;18.97;;;1.10;99.90;;;;;;5093204;28;20032;-79
2022/11/28 04:59:47;;;;;;;30.73;20.05;;;1.10;99.90;;;;;;5092735;28;20027;-79
2022/11/28 05:02:15;;;;;;;29.77;18.53;;;1.10;99.90;;;;;;5090440;28;20125;-79
2022/11/28 05:04:43;;;;;;;29.97;18.60;;;1.10;99.90;;;;;;5092858;28;20020;-79
2022/11/28 05:07:08;;;;;;;29.13;18.80;;;1.10;99.90;;;;;;5092651;28;20016;-79
2022/11/28 05:09:35;;;;;;;32.07;20.00;;;1.10;99.90;;;;;;5092853;28;20024;-79
2022/11/28 05:12:01;;;;;;;28.63;19.03;;;1.10;99.90;;;;;;5092632;28;20035;-79
2022/11/28 05:14:26;;;;;;;29.57;20.13;;;1.10;99.90;;;;;;5092294;28;20035;-79
2022/11/28 05:16:52;;;;;;;30.10;20.27;;;1.10;99.90;;;;;;5092375;28;20043;-79
2022/11/28 05:19:18;;;;;;;26.90;18.67;;;1.10;99.90;;;;;;5092411;28;20039;-79
2022/11/28 05:21:43;;;;;;;29.13;19.27;;;1.10;99.90;;;;;;5092264;28;20368;-79
2022/11/28 05:24:09;;;;;;;29.47;18.87;;;1.10;99.90;;;;;;5092360;28;20020;-79
2022/11/28 05:26:35;;;;;;;30.33;20.23;;;1.10;99.90;;;;;;5092460;28;20027;-79
2022/11/28 05:29:01;;;;;;;37.80;25.67;;;1.10;99.90;;;;;;5092340;28;20023;-79
2022/11/28 05:31:27;;;;;;;103.80;57.13;;;1.10;99.90;;;;;;5092311;28;20480;-79
2022/11/28 05:33:54;;;;;;;53.60;31.40;;;1.20;99.90;;;;;;5092510;28;20539;-79
2022/11/28 05:36:20;;;;;;;117.33;76.83;;;1.10;99.90;;;;;;5092054;28;20028;-79
2022/11/28 05:38:46;;;;;;;38.17;25.10;;;1.10;99.90;;;;;;5092373;28;20491;-79
2022/11/28 05:41:26;;;;;;;38.70;24.67;;;1.20;99.90;;;;;;5092057;28;20028;-79
2022/11/28 05:43:52;;;;;;;32.63;21.03;;;1.20;99.90;;;;;;5092178;28;20103;-79
2022/11/28 05:46:18;;;;;;;32.83;21.00;;;1.10;99.90;;;;;;5091763;28;20060;-79
2022/11/28 05:48:44;;;;;;;37.53;24.13;;;1.10;99.90;;;;;;5091564;28;20105;-79
2022/11/28 05:51:10;;;;;;;57.30;34.77;;;1.10;99.90;;;;;;5092096;28;20024;-79
2022/11/28 05:53:36;;;;;;;101.33;53.60;;;1.10;99.90;;;;;;5091934;28;20032;-79
2022/11/28 05:56:09;;;;;;;45.17;29.00;;;1.10;99.90;;;;;;5091500;28;20036;-79
2022/11/28 05:58:35;;;;;;;52.33;32.50;;;1.10;99.90;;;;;;5091758;28;20093;-79
2022/11/28 06:01:14;;;;;;;46.50;30.03;;;1.10;99.90;;;;;;5091550;28;20021;-79
2022/11/28 06:03:40;;;;;;;57.47;33.70;;;1.10;99.90;;;;;;5091998;28;20380;-79
2022/11/28 06:06:13;;;;;;;34.87;22.17;;;1.10;99.90;;;;;;5085924;28;20353;-79
2022/11/28 06:08:40;;;;;;;45.60;26.97;;;1.10;99.90;;;;;;5088978;28;20016;-79
2022/11/28 06:11:06;;;;;;;41.47;25.87;;;1.10;99.90;;;;;;5091034;28;20028;-79
2022/11/28 06:13:31;;;;;;;32.73;20.83;;;1.10;99.90;;;;;;5090465;28;20042;-79
2022/11/28 06:15:57;;;;;;;38.77;25.03;;;1.10;99.90;;;;;;5090962;28;20024;-79
2022/11/28 06:18:23;;;;;;;43.47;26.60;;;1.10;99.90;;;;;;5091172;28;20069;-79
2022/11/28 06:20:48;;;;;;;93.27;56.80;;;1.10;99.90;;;;;;5090816;28;20039;-79
2022/11/28 06:23:14;;;;;;;60.87;39.47;;;1.10;99.90;;;;;;5090762;28;20028;-79
2022/11/28 06:25:44;;;;;;;38.13;25.47;;;1.10;99.90;;;;;;5087873;28;20023;-79
2022/11/28 06:28:10;;;;;;;34.83;22.67;;;1.20;99.90;;;;;;5087958;28;20123;-79
2022/11/28 06:30:36;;;;;;;32.13;20.70;;;1.10;99.90;;;;;;5090539;28;20111;-79
2022/11/28 06:33:01;;;;;;;30.33;20.60;;;1.20;99.90;;;;;;5091259;28;20024;-79
2022/11/28 06:35:27;;;;;;;62.73;41.10;;;1.20;99.90;;;;;;5089758;28;20037;-79
2022/11/28 06:37:52;;;;;;;42.20;29.20;;;1.20;99.90;;;;;;5092150;28;20032;-79
2022/11/28 06:40:18;;;;;;;41.00;26.47;;;1.20;99.90;;;;;;5092104;28;20032;-79
2022/11/28 06:42:43;;;;;;;38.93;23.93;;;1.20;99.90;;;;;;5090945;28;20103;-79
2022/11/28 06:45:09;;;;;;;32.60;23.47;;;1.20;99.90;;;;;;5091386;28;20028;-79
2022/11/28 06:47:35;;;;;;;31.50;21.90;;;1.20;99.90;;;;;;5091943;28;20024;-79
2022/11/28 06:50:00;;;;;;;33.87;20.97;;;1.20;99.90;;;;;;5091964;28;20024;-79
2022/11/28 06:52:26;;;;;;;33.70;22.10;;;1.20;99.90;;;;;;5077734;28;20028;-79
2022/11/28 06:54:52;;;;;;;31.43;19.80;;;1.20;99.90;;;;;;5090835;28;20040;-79
2022/11/28 06:57:17;;;;;;;31.60;20.30;;;1.20;99.90;;;;;;5090823;28;20048;-79
2022/11/28 06:59:43;;;;;;;36.57;19.70;;;1.20;99.90;;;;;;5090754;28;20024;-79
2022/11/28 07:02:10;;;;;;;27.60;18.87;;;1.30;99.90;;;;;;5090768;28;20024;-79
2022/11/28 07:04:35;;;;;;;26.10;17.97;;;1.30;99.90;;;;;;5090482;28;20077;-79
2022/11/28 07:07:02;;;;;;;31.90;18.50;;;1.30;99.90;;;;;;5090825;28;20122;-79
2022/11/28 07:09:27;;;;;;;33.87;20.07;;;1.30;99.90;;;;;;5090697;28;20046;-79
2022/11/28 07:11:53;;;;;;;30.23;19.07;;;1.30;99.90;;;;;;5090565;28;20028;-79
2022/11/28 07:14:18;;;;;;;27.80;19.20;;;1.40;99.90;;;;;;5091377;28;20039;-79
2022/11/28 07:16:44;;;;;;;25.73;17.53;;;1.40;99.90;;;;;;5090515;28;20032;-79
2022/11/28 07:19:13;;;;;;;26.00;17.90;;;1.40;99.90;;;;;;5090556;28;20098;-79
2022/11/28 07:21:39;;;;;;;29.63;18.80;;;1.40;99.90;;;;;;5089994;28;20035;-79
2022/11/28 07:24:05;;;;;;;29.40;19.30;;;1.40;99.90;;;;;;5090206;28;20019;-79
2022/11/28 07:26:31;;;;;;;27.23;18.60;;;1.40;99.90;;;;;;5092713;28;20089;-80
2022/11/28 07:28:58;;;;;;;27.53;18.43;;;1.50;99.90;;;;;;5089569;28;20063;-79
2022/11/28 07:31:26;;;;;;;30.67;19.40;;;1.50;99.90;;;;;;5087401;28;20032;-79
2022/11/28 07:33:52;;;;;;;26.80;18.50;;;1.50;99.90;;;;;;5088750;28;20138;-79
2022/11/28 07:36:19;;;;;;;27.53;18.60;;;1.50;99.90;;;;;;5072205;28;21521;-79
2022/11/28 07:38:49;;;;;;;23.97;17.20;;;1.60;99.90;;;;;;5089428;28;20035;-80
2022/11/28 07:41:15;;;;;;;29.77;19.10;;;1.60;99.90;;;;;;5089111;28;20133;-79
2022/11/28 07:43:42;;;;;;;29.73;18.07;;;1.60;99.90;;;;;;5088048;28;20051;-79
2022/11/28 07:46:11;;;;;;;29.50;18.83;;;1.60;99.90;;;;;;5088966;28;20024;-80
2022/11/28 07:48:36;;;;;;;27.63;17.73;;;1.60;99.90;;;;;;5089167;28;20122;-80
2022/11/28 07:51:10;;;;;;;28.13;18.63;;;1.60;99.90;;;;;;5089640;28;20098;-80
2022/11/28 07:53:37;;;;;;;29.57;18.63;;;1.60;99.90;;;;;;5070625;28;20036;-80
2022/11/28 07:56:09;;;;;;;26.97;17.90;;;1.70;99.90;;;;;;5094081;28;20043;-80
2022/11/28 07:58:35;;;;;;;30.87;19.30;;;1.70;99.90;;;;;;5093725;28;20024;-80
2022/11/28 08:01:16;;;;;;;26.37;17.47;;;1.70;99.90;;;;;;5083552;28;20059;-80
2022/11/28 08:03:43;;;;;;;25.03;17.33;;;1.70;99.90;;;;;;5073392;28;20112;-80
2022/11/28 08:06:09;;;;;;;28.00;16.57;;;1.70;99.90;;;;;;5078667;28;20023;-80
2022/11/28 08:08:36;;;;;;;26.63;17.53;;;1.80;99.90;;;;;;5093075;28;20073;-80
2022/11/28 08:11:03;;;;;;;25.57;17.33;;;1.80;99.90;;;;;;5093778;28;20034;-80
2022/11/28 08:13:29;;;;;;;27.63;16.80;;;1.80;99.90;;;;;;5079047;28;20087;-80
2022/11/28 08:15:55;;;;;;;25.97;17.50;;;1.80;99.90;;;;;;5073493;28;20354;-80
2022/11/28 08:18:20;;;;;;;54.83;32.80;;;1.80;99.90;;;;;;5075509;28;20060;-81
2022/11/28 08:20:46;;;;;;;33.07;21.67;;;1.90;99.90;;;;;;5093231;28;20024;-80
2022/11/28 08:23:11;;;;;;;25.80;18.00;;;1.90;99.90;;;;;;5093228;28;20020;-80
2022/11/28 08:25:37;;;;;;;24.70;17.20;;;1.90;99.90;;;;;;5093380;28;20056;-80
2022/11/28 08:28:03;;;;;;;38.37;23.50;;;1.90;99.90;;;;;;5083072;28;20100;-80
2022/11/28 08:30:31;;;;;;;27.43;18.17;;;1.90;99.90;;;;;;5092865;28;20051;-80
2022/11/28 08:32:57;;;;;;;24.97;16.30;;;2.00;99.90;;;;;;5092418;28;20103;-79
2022/11/28 08:35:22;;;;;;;26.63;18.03;;;2.00;99.90;;;;;;5092859;28;20095;-80
2022/11/28 08:37:48;;;;;;;34.83;21.80;;;2.00;99.90;;;;;;5093247;28;20024;-79
2022/11/28 08:40:14;;;;;;;30.10;19.70;;;2.00;99.90;;;;;;5093283;28;20369;-80
2022/11/28 08:42:39;;;;;;;24.30;17.33;;;2.10;99.90;;;;;;5093000;28;20074;-79
2022/11/28 08:45:05;;;;;;;25.63;17.27;;;2.10;99.90;;;;;;5093294;28;20139;-79
2022/11/28 08:47:31;;;;;;;25.03;17.50;;;2.10;99.90;;;;;;5090375;28;20031;-79
2022/11/28 08:49:59;;;;;;;26.27;17.73;;;2.10;99.90;;;;;;5093063;28;20024;-80
2022/11/28 08:52:25;;;;;;;32.30;20.27;;;2.10;99.90;;;;;;5092886;28;20099;-79
2022/11/28 08:54:50;;;;;;;33.13;20.57;;;2.20;99.90;;;;;;5093106;28;20544;-80
2022/11/28 08:57:16;;;;;;;29.10;18.70;;;2.20;99.90;;;;;;5093153;28;20309;-80
2022/11/28 08:59:41;;;;;;;25.47;16.93;;;2.20;99.90;;;;;;5092940;28;20036;-80
2022/11/28 09:02:11;;;;;;;24.70;16.60;;;2.20;99.90;;;;;;5092884;28;20484;-80
2022/11/28 09:04:37;;;;;;;25.03;17.73;;;2.20;99.90;;;;;;5091812;28;20095;-79
2022/11/28 09:07:03;;;;;;;50.83;28.03;;;2.30;99.90;;;;;;5092270;28;20099;-80
2022/11/28 09:09:29;;;;;;;51.93;28.90;;;2.30;99.90;;;;;;5092601;28;20039;-80
2022/11/28 09:11:54;;;;;;;31.70;18.93;;;2.40;99.90;;;;;;5092656;28;20035;-80
2022/11/28 09:14:20;;;;;;;26.60;17.43;;;2.50;99.90;;;;;;5076723;28;20024;-80
2022/11/28 09:16:46;;;;;;;28.83;18.27;;;2.60;99.90;;;;;;5072347;28;20024;-80
2022/11/28 09:19:12;;;;;;;28.07;17.93;;;2.60;99.90;;;;;;5072276;28;20078;-80
2022/11/28 09:21:37;;;;;;;32.90;20.60;;;2.70;99.90;;;;;;5072191;28;20043;-79
2022/11/28 09:24:04;;;;;;;33.57;22.17;;;2.70;99.90;;;;;;5072090;28;20021;-80
2022/11/28 09:26:29;;;;;;;31.87;19.23;;;2.80;99.90;;;;;;5072089;28;20074;-80
2022/11/28 09:28:55;;;;;;;35.80;23.93;;;2.80;99.90;;;;;;5079079;28;20031;-79
2022/11/28 09:31:21;;;;;;;33.17;21.73;;;2.80;99.90;;;;;;5091131;28;20055;-80
2022/11/28 09:33:48;;;;;;;38.17;27.77;;;2.90;99.90;;;;;;5092486;28;20039;-80
2022/11/28 09:36:16;;;;;;;40.03;25.33;;;2.90;99.90;;;;;;5093098;28;20736;-80
2022/11/28 09:38:42;;;;;;;38.97;23.77;;;3.00;99.90;;;;;;5092163;28;20101;-80
2022/11/28 09:41:26;;;;;;;35.10;22.70;;;3.00;99.90;;;;;;5092023;28;20059;-80
2022/11/28 09:43:57;;;;;;;34.37;20.70;;;3.00;99.90;;;;;;5090488;28;20020;-80
2022/11/28 09:46:30;;;;;;;35.10;19.80;;;3.10;99.90;;;;;;5091786;28;20026;-79
2022/11/28 09:49:00;;;;;;;32.00;17.83;;;3.20;99.90;;;;;;5090843;28;20087;-79
2022/11/28 09:51:49;;;;;;;27.47;17.73;;;3.20;99.90;;;;;;5091700;28;20064;-79
2022/11/28 09:54:30;;;;;;;29.90;18.10;;;3.30;99.90;;;;;;5091649;28;20024;-80
2022/11/28 09:56:57;;;;;;;23.63;16.20;;;3.30;99.90;;;;;;5091686;28;20550;-81
2022/11/28 09:59:29;;;;;;;22.57;16.17;;;3.40;99.90;;;;;;5091339;28;20127;-81
2022/11/28 10:02:03;;;;;;;26.23;17.13;;;3.40;99.90;;;;;;5091227;28;20020;-80
2022/11/28 10:04:44;;;;;;;25.58;16.50;;;3.50;99.90;;;;;;5091032;28;20375;-80
2022/11/28 10:07:15;;;;;;;30.00;18.07;;;3.50;99.90;;;;;;5081927;28;20460;-80
2022/11/28 10:09:44;;;;;;;25.77;16.00;;;3.60;99.90;;;;;;5091372;28;20028;-80
2022/11/28 10:12:20;;;;;;;22.73;14.57;;;3.70;99.90;;;;;;5091335;28;20085;-80
2022/11/28 10:15:26;;;;;;;24.43;14.40;;;3.80;99.90;;;;;;5091482;28;20031;-80
2022/11/28 10:18:25;;;;;;;22.47;14.87;;;3.80;99.90;;;;;;5092388;28;20797;-80
2022/11/28 10:20:57;;;;;;;23.17;14.73;;;3.90;99.90;;;;;;5090326;28;20023;-80
2022/11/28 10:23:42;;;;;;;22.40;14.07;;;3.90;99.90;;;;;;5090319;28;20102;-80
2022/11/28 10:26:16;;;;;;;25.83;14.37;;;4.00;99.90;;;;;;5090450;28;20392;-80
2022/11/28 10:28:47;;;;;;;25.02;14.80;;;4.00;99.90;;;;;;5092155;28;20162;-80
2022/11/28 10:31:25;;;;;;;26.63;14.80;;;4.10;99.90;;;;;;5074085;28;20722;-80
2022/11/28 10:34:10;;;;;;;21.50;13.23;;;4.10;99.90;;;;;;5091873;28;20054;-80
2022/11/28 10:36:56;;;;;;;25.95;13.32;;;4.20;99.90;;;;;;5091874;28;20488;-80
2022/11/28 10:39:24;;;;;;;21.63;13.83;;;4.10;99.90;;;;;;5092105;28;20028;-80
2022/11/28 10:42:10;;;;;;;27.53;15.30;;;4.20;99.90;;;;;;5091986;28;20135;-80
2022/11/28 10:45:15;;;;;;;25.50;14.50;;;4.20;99.90;;;;;;5082102;28;20036;-80
2022/11/28 10:48:09;;;;;;;22.73;12.83;;;4.30;99.90;;;;;;5082767;28;20048;-79
2022/11/28 10:50:54;;;;;;;22.93;13.13;;;4.40;99.90;;;;;;5085111;28;20043;-80
2022/11/28 10:53:39;;;;;;;15.95;12.05;;;4.40;99.90;;;;;;5085077;28;20028;-80
2022/11/28 10:56:39;;;;;;;20.60;13.75;;;4.50;99.90;;;;;;5084378;28;20166;-80
2022/11/28 10:59:04;;;;;;;17.10;12.90;;;4.50;99.90;;;;;;5085069;28;20062;-80
2022/11/28 11:01:36;;;;;;;16.67;12.30;;;4.50;99.90;;;;;;5089642;28;20099;-80
2022/11/28 11:04:02;;;;;;;18.37;12.10;;;4.50;99.90;;;;;;5090882;28;20372;-81
2022/11/28 11:06:27;;;;;;;20.03;11.90;;;4.60;99.90;;;;;;5090138;28;20032;-80
2022/11/28 11:08:53;;;;;;;15.23;11.27;;;4.70;99.90;;;;;;5089954;28;20063;-80
2022/11/28 11:11:33;;;;;;;19.30;12.37;;;4.70;99.90;;;;;;5093036;28;20049;-87
2022/11/28 11:14:00;;;;;;;19.00;12.57;;;4.80;99.90;;;;;;5062354;28;20107;-87
2022/11/28 11:16:47;;;;;;;19.27;12.17;;;4.80;99.90;;;;;;5073293;28;20029;-87
2022/11/28 11:19:36;;;;;;;21.07;13.97;;;4.90;99.90;;;;;;5055656;28;20364;-87
2022/11/28 11:22:02;;;;;;;20.33;13.10;;;4.90;99.90;;;;;;5072798;28;20104;-87
2022/11/28 11:24:28;;;;;;;18.60;12.23;;;4.90;99.90;;;;;;5073113;28;20103;-87
2022/11/28 11:27:03;;;;;;;16.80;12.10;;;5.00;99.90;;;;;;5054703;28;20115;-87
2022/11/28 11:29:35;;;;;;;21.00;13.60;;;5.00;99.90;;;;;;5072806;28;20028;-91
2022/11/28 11:32:05;;;;;;;15.97;12.23;;;5.10;99.90;;;;;;5071943;28;20063;-82
2022/11/28 11:34:44;;;;;;;19.43;13.07;;;5.10;99.90;;;;;;5071077;28;20112;-82
2022/11/28 11:37:27;;;;;;;19.27;12.70;;;5.20;99.90;;;;;;5070468;28;20060;-82
2022/11/28 11:39:53;;;;;;;20.97;13.33;;;5.30;99.90;;;;;;5070612;28;20100;-82
2022/11/28 11:42:30;;;;;;;19.77;12.50;;;5.40;99.90;;;;;;5070781;28;20107;-85
2022/11/28 11:45:16;;;;;;;20.70;13.03;;;5.40;99.90;;;;;;5052667;28;20086;-83
2022/11/28 11:47:43;;;;;;;23.27;13.77;;;5.40;99.90;;;;;;5086349;28;20068;-83
2022/11/28 11:50:17;;;;;;;18.10;12.93;;;5.50;99.90;;;;;;5090201;28;20065;-83
2022/11/28 11:52:43;;;;;;;20.73;13.20;;;5.50;99.90;;;;;;5090525;28;20032;-83
2022/11/28 11:55:15;;;;;;;21.07;12.83;;;5.50;99.90;;;;;;5091053;28;20032;-83
2022/11/28 11:57:50;;;;;;;17.60;12.97;;;5.50;99.90;;;;;;5071609;28;20051;-83
2022/11/28 12:00:19;;;;;;;19.13;13.32;;;5.50;99.90;;;;;;5090157;28;20477;-83
2022/11/28 12:02:47;;;;;;;18.97;13.63;;;5.50;99.90;;;;;;5071758;28;20056;-82
2022/11/28 12:05:22;;;;;;;23.83;15.90;;;5.50;99.90;;;;;;5090171;28;20052;-83
2022/11/28 12:08:10;;;;;;;17.37;12.10;;;5.50;99.90;;;;;;5090417;28;20085;-82
2022/11/28 12:10:47;;;;;;;21.60;13.17;;;5.50;99.90;;;;;;5090800;28;20261;-83
2022/11/28 12:13:20;;;;;;;17.53;11.63;;;5.50;99.90;;;;;;5091915;28;20032;-83
2022/11/28 12:15:59;;;;;;;22.67;12.70;;;5.50;99.90;;;;;;5093027;28;20455;-83
2022/11/28 12:18:37;;;;;;;17.53;11.73;;;5.50;99.90;;;;;;5093909;28;20360;-84
2022/11/28 12:21:37;;;;;;;19.40;12.97;;;5.50;99.90;;;;;;5094106;28;20028;-83
2022/11/28 12:24:11;;;;;;;16.47;11.60;;;5.50;99.90;;;;;;5093069;28;20079;-83
2022/11/28 12:26:43;;;;;;;15.77;11.93;;;5.60;99.90;;;;;;5094020;28;20465;-83
2022/11/28 12:29:30;;;;;;;17.23;10.97;;;5.50;99.90;;;;;;5093818;28;20039;-83
2022/11/28 12:32:12;;;;;;;15.93;11.50;;;5.50;99.90;;;;;;5093918;28;20063;-83
2022/11/28 12:35:05;;;;;;;18.07;12.33;;;5.50;99.90;;;;;;5085451;28;20027;-83
2022/11/28 12:37:31;;;;;;;17.07;12.17;;;5.50;99.90;;;;;;5091187;28;20040;-83
2022/11/28 12:40:08;;;;;;;22.77;12.77;;;5.60;99.90;;;;;;5075066;28;20032;-83
2022/11/28 12:42:58;;;;;;;16.27;11.50;;;5.60;99.90;;;;;;5091270;28;20040;-83
2022/11/28 12:46:25;;;;;;;19.77;12.80;;;5.60;99.90;;;;;;5092794;28;20113;-83
2022/11/28 12:49:09;;;;;;;18.60;13.05;;;5.60;99.90;;;;;;5000726;28;20552;-84
2022/11/28 12:51:59;;;;;;;20.90;12.80;;;5.60;99.90;;;;;;5084506;28;20094;-83
2022/11/28 12:54:45;;;;;;;17.33;11.93;;;5.60;99.90;;;;;;5090799;28;20495;-83
2022/11/28 12:57:20;;;;;;;21.03;13.67;;;5.60;99.90;;;;;;5090725;28;20111;-83
2022/11/28 13:00:06;;;;;;;23.20;12.90;;;5.70;99.90;;;;;;5092353;28;20132;-84
2022/11/28 13:02:48;;;;;;;18.87;12.70;;;5.60;99.90;;;;;;5093369;28;20043;-83